Terminal Aerodrome Forecast
Issued by NWS

Home | Current Version | Previous Version | Text Only | Print | Product List | Glossary On
Versions: 1 2 3 4 5 6 7 8 9 10 11 12 13 14 15 16 17 18
140
FTUS43 KMQT 140520
TAFIWD
TAF
KIWD 140520Z 1406/1506 00000KT P6SM SKC
     FM141300 16006KT P6SM FEW200
     FM141800 17010G17KT P6SM BKN150
     FM142100 17011G18KT P6SM OVC050
     FM142300 17009KT P6SM OVC030
     FM150300 18010KT P6SM VCSH OVC024
      AMD LTD TO CLD VIS AND WIND=

USA.gov is the U.S. government's official web portal to all federal, state and local government web resources and services.